createdAt,value
2022-10-14T00:00:51.382Z,59.83
2022-10-14T00:03:22.249Z,59.93
2022-10-14T00:05:55.123Z,60.08
2022-10-14T00:08:28.546Z,59.96
2022-10-14T00:11:04.443Z,59.79
2022-10-14T00:13:36.373Z,59.80
2022-10-14T00:16:16.183Z,60.07
2022-10-14T00:18:47.614Z,59.97
2022-10-14T00:21:20.411Z,60.06
2022-10-14T00:23:51.391Z,60.13
2022-10-14T00:26:27.920Z,60.12
2022-10-14T00:28:59.451Z,60.09
2022-10-14T00:31:33.659Z,60.17
2022-10-14T00:34:04.932Z,60.23
2022-10-14T00:36:37.422Z,60.15
2022-10-14T00:39:08.674Z,60.24
2022-10-14T00:41:42.524Z,60.24
2022-10-14T00:44:40.329Z,60.14
2022-10-14T00:47:11.502Z,60.37
2022-10-14T00:49:44.778Z,60.20
2022-10-14T00:52:21.127Z,60.45
2022-10-14T00:54:55.499Z,60.40
2022-10-14T00:57:28.489Z,60.43
2022-10-14T01:00:06.479Z,60.43
2022-10-14T01:02:37.799Z,60.42
2022-10-14T01:05:11.871Z,60.29
2022-10-14T01:08:01.743Z,60.35
2022-10-14T01:10:41.497Z,60.35
2022-10-14T01:13:23.863Z,60.55
2022-10-14T01:16:06.314Z,60.51
2022-10-14T01:18:52.122Z,60.47
2022-10-14T01:21:29.049Z,60.58
2022-10-14T01:24:25.519Z,60.78
2022-10-14T01:27:35.546Z,60.82
2022-10-14T01:30:19.937Z,61.01
2022-10-14T01:33:03.971Z,61.10
2022-10-14T01:35:45.700Z,61.35
2022-10-14T01:38:21.698Z,61.42
2022-10-14T01:40:58.147Z,61.41
2022-10-14T01:43:32.593Z,61.56
2022-10-14T01:46:06.436Z,61.55
2022-10-14T01:48:40.234Z,61.65
2022-10-14T01:51:16.189Z,61.73
2022-10-14T01:54:09.083Z,61.77
2022-10-14T01:56:41.010Z,61.76
2022-10-14T01:59:14.008Z,61.94
2022-10-14T02:01:45.207Z,61.94
2022-10-14T02:04:21.956Z,62.00
2022-10-14T02:07:05.774Z,61.84
2022-10-14T02:09:44.478Z,62.00
2022-10-14T02:12:29.226Z,61.82
2022-10-14T02:15:12.193Z,61.91
2022-10-14T02:17:52.320Z,61.88
2022-10-14T02:20:30.837Z,62.03
2022-10-14T02:23:14.351Z,62.12
2022-10-14T02:28:37.281Z,62.34
2022-10-14T02:31:24.678Z,62.52
2022-10-14T02:34:35.845Z,62.45
2022-10-14T02:37:09.668Z,62.65
2022-10-14T02:40:00.437Z,62.72
2022-10-14T02:42:50.296Z,62.66
2022-10-14T02:45:33.040Z,62.74
2022-10-14T02:48:04.043Z,62.78
2022-10-14T02:50:35.339Z,62.76
2022-10-14T02:53:06.397Z,62.70
2022-10-14T02:55:37.356Z,62.83
2022-10-14T02:58:10.459Z,62.85
2022-10-14T03:00:41.769Z,62.75
2022-10-14T03:03:23.097Z,62.78
2022-10-14T03:05:56.681Z,62.87
2022-10-14T03:08:27.987Z,62.97
2022-10-14T03:11:00.134Z,63.02
2022-10-14T03:13:31.794Z,62.81
2022-10-14T03:16:06.826Z,62.89
2022-10-14T03:18:45.973Z,62.97
2022-10-14T03:21:24.469Z,63.14
2022-10-14T03:23:55.457Z,63.02
2022-10-14T03:26:32.784Z,62.98
2022-10-14T03:29:03.849Z,63.14
2022-10-14T03:31:57.186Z,63.16
2022-10-14T03:34:33.040Z,63.06
2022-10-14T03:37:09.041Z,63.29
2022-10-14T03:39:45.064Z,63.22
2022-10-14T03:42:16.733Z,63.38
2022-10-14T03:44:50.086Z,63.35
2022-10-14T03:47:24.895Z,63.21
2022-10-14T03:49:55.977Z,63.15
2022-10-14T03:52:53.286Z,63.13
2022-10-14T03:55:31.105Z,63.22
2022-10-14T03:58:02.069Z,63.31
2022-10-14T04:00:35.622Z,63.36
2022-10-14T04:03:17.096Z,63.35
2022-10-14T04:05:48.552Z,63.35
2022-10-14T04:08:21.864Z,63.31
2022-10-14T04:10:58.880Z,63.48
2022-10-14T04:13:32.159Z,63.53
2022-10-14T04:16:08.143Z,63.69
2022-10-14T04:18:58.718Z,63.67
2022-10-14T04:21:29.711Z,63.63
2022-10-14T04:24:06.076Z,63.78
2022-10-14T04:26:44.045Z,63.82
2022-10-14T04:29:19.941Z,64.00
2022-10-14T04:32:05.219Z,64.08
2022-10-14T04:34:36.305Z,64.14
2022-10-14T04:37:08.969Z,64.34
2022-10-14T04:40:03.776Z,64.35
2022-10-14T04:42:35.212Z,64.45
2022-10-14T04:45:09.410Z,64.52
2022-10-14T04:47:48.924Z,64.61
2022-10-14T04:50:22.689Z,64.82
2022-10-14T04:53:13.765Z,64.84
2022-10-14T04:56:06.001Z,64.91
2022-10-14T04:58:39.452Z,65.02
2022-10-14T05:01:11.522Z,64.90
2022-10-14T05:03:44.236Z,64.97
2022-10-14T05:06:21.760Z,64.85
2022-10-14T05:08:55.238Z,64.83
2022-10-14T05:11:27.080Z,64.86
2022-10-14T05:13:59.997Z,64.86
2022-10-14T05:16:31.688Z,64.87
2022-10-14T05:19:05.390Z,64.88
2022-10-14T05:21:38.178Z,64.90
2022-10-14T05:24:16.183Z,65.06
2022-10-14T05:26:47.495Z,65.14
2022-10-14T05:29:19.396Z,65.12
2022-10-14T05:31:52.920Z,65.25
2022-10-14T05:34:44.107Z,65.47
2022-10-14T05:37:19.890Z,65.40
2022-10-14T05:39:55.367Z,65.20
2022-10-14T05:42:28.539Z,65.28
2022-10-14T05:45:01.114Z,65.10
2022-10-14T05:47:32.608Z,65.00
2022-10-14T05:50:09.531Z,64.99
2022-10-14T05:52:41.036Z,64.97
2022-10-14T05:55:18.452Z,64.82
2022-10-14T05:57:50.075Z,64.83
2022-10-14T06:00:25.780Z,64.79
2022-10-14T06:03:00.569Z,65.00
2022-10-14T06:05:31.750Z,65.05
2022-10-14T06:08:02.817Z,64.54
2022-10-14T06:10:33.990Z,64.26
2022-10-14T06:13:05.200Z,63.94
2022-10-14T06:15:39.043Z,63.91
2022-10-14T06:18:10.430Z,63.40
2022-10-14T06:20:47.808Z,62.97
2022-10-14T06:23:21.426Z,62.44
2022-10-14T06:25:53.088Z,62.19
2022-10-14T06:28:27.085Z,61.08
2022-10-14T06:30:58.377Z,60.68
2022-10-14T06:33:31.132Z,60.39
2022-10-14T06:36:05.881Z,60.47
2022-10-14T06:38:37.164Z,60.61
2022-10-14T06:41:08.232Z,60.23
2022-10-14T06:43:39.514Z,60.12
2022-10-14T06:46:10.703Z,60.40
2022-10-14T06:48:46.876Z,60.69
2022-10-14T06:51:21.627Z,61.11
2022-10-14T06:53:52.446Z,61.11
2022-10-14T06:56:24.944Z,60.72
2022-10-14T06:58:58.641Z,60.26
2022-10-14T07:01:30.019Z,60.63
2022-10-14T07:04:00.941Z,60.85
2022-10-14T07:06:34.664Z,60.90
2022-10-14T07:09:06.596Z,60.68
2022-10-14T07:11:38.356Z,59.61
2022-10-14T07:14:09.702Z,58.82
2022-10-14T07:16:40.823Z,58.57
2022-10-14T07:19:11.897Z,58.16
2022-10-14T07:21:45.398Z,58.06
2022-10-14T07:24:16.742Z,57.87
2022-10-14T07:26:50.170Z,57.73
2022-10-14T07:29:21.094Z,57.81
2022-10-14T07:31:51.975Z,58.19
2022-10-14T07:34:22.991Z,58.40
2022-10-14T07:36:54.543Z,58.70
2022-10-14T07:39:27.692Z,59.07
2022-10-14T07:41:58.912Z,59.07
2022-10-14T07:44:29.874Z,58.83
2022-10-14T07:47:03.289Z,58.27
2022-10-14T07:49:35.582Z,57.54
2022-10-14T07:52:08.381Z,56.60
2022-10-14T07:54:40.088Z,56.06
2022-10-14T07:57:11.087Z,55.64
2022-10-14T07:59:42.137Z,55.91
2022-10-14T08:02:14.485Z,55.41
2022-10-14T08:04:48.764Z,54.89
2022-10-14T08:07:20.244Z,53.85
2022-10-14T08:09:53.817Z,53.20
2022-10-14T08:12:25.348Z,52.50
2022-10-14T08:14:59.052Z,51.41
2022-10-14T08:17:30.061Z,50.49
2022-10-14T08:20:01.170Z,50.29
2022-10-14T08:22:32.824Z,50.27
2022-10-14T08:25:04.009Z,49.77
2022-10-14T08:27:35.121Z,49.50
2022-10-14T08:30:11.104Z,48.93
2022-10-14T08:32:42.149Z,48.64
2022-10-14T08:35:13.561Z,48.35
2022-10-14T08:37:45.554Z,48.52
2022-10-14T08:40:18.953Z,48.72
2022-10-14T08:42:56.897Z,48.62
2022-10-14T08:45:36.729Z,48.79
2022-10-14T08:48:16.214Z,49.21
2022-10-14T08:50:54.441Z,49.37
2022-10-14T08:53:30.609Z,49.57
2022-10-14T08:56:03.865Z,49.75
2022-10-14T08:58:38.547Z,49.97
2022-10-14T09:01:28.817Z,49.89
2022-10-14T09:04:04.122Z,50.41
2022-10-14T09:06:39.888Z,50.48
2022-10-14T09:09:15.537Z,50.83
2022-10-14T09:11:51.867Z,50.90
2022-10-14T09:14:32.867Z,50.43
2022-10-14T09:19:50.885Z,49.61
2022-10-14T09:22:22.233Z,49.75
2022-10-14T09:24:53.382Z,49.43
2022-10-14T09:27:26.007Z,49.04
2022-10-14T09:30:00.254Z,48.83
2022-10-14T09:32:34.731Z,48.51
2022-10-14T09:35:15.979Z,48.30
2022-10-14T09:37:46.965Z,48.24
2022-10-14T09:40:26.115Z,48.25
2022-10-14T09:43:17.263Z,48.13
2022-10-14T09:45:57.215Z,48.29
2022-10-14T09:48:38.801Z,48.92
2022-10-14T09:51:18.841Z,49.05
2022-10-14T09:53:53.457Z,49.33
2022-10-14T09:56:37.459Z,49.41
2022-10-14T09:59:19.791Z,49.57
2022-10-14T10:01:56.352Z,49.73
2022-10-14T10:04:37.547Z,49.98
2022-10-14T10:07:27.147Z,50.26
2022-10-14T10:09:59.576Z,50.54
2022-10-14T10:12:33.281Z,50.55
2022-10-14T10:15:06.277Z,50.60
2022-10-14T10:17:40.805Z,50.77
2022-10-14T10:20:28.319Z,51.17
2022-10-14T10:23:18.456Z,51.38
2022-10-14T10:25:50.120Z,51.61
2022-10-14T10:28:32.292Z,51.60
2022-10-14T10:31:21.267Z,51.45
2022-10-14T10:33:58.257Z,51.55
2022-10-14T10:36:35.018Z,51.61
2022-10-14T10:39:18.444Z,51.91
2022-10-14T10:42:02.547Z,51.81
2022-10-14T10:44:53.259Z,51.73
2022-10-14T10:47:38.272Z,51.82
2022-10-14T10:50:39.319Z,51.52
2022-10-14T10:53:29.484Z,51.53
2022-10-14T10:56:13.645Z,51.50
2022-10-14T10:58:59.033Z,51.48
2022-10-14T11:01:41.963Z,51.47
2022-10-14T11:04:31.902Z,51.51
2022-10-14T11:07:33.631Z,51.48
2022-10-14T11:10:32.131Z,51.48
2022-10-14T11:13:13.231Z,51.39
2022-10-14T11:15:53.714Z,51.03
2022-10-14T11:18:35.833Z,51.13
2022-10-14T11:21:16.951Z,50.92
2022-10-14T11:23:57.234Z,50.73
2022-10-14T11:26:50.243Z,50.75
2022-10-14T11:29:43.023Z,50.60
2022-10-14T11:32:21.769Z,50.42
2022-10-14T11:35:06.144Z,50.15
2022-10-14T11:37:49.775Z,50.21
2022-10-14T11:40:28.882Z,50.51
2022-10-14T11:43:14.667Z,50.38
2022-10-14T11:45:52.530Z,50.36
2022-10-14T11:48:33.955Z,50.27
2022-10-14T11:51:12.847Z,50.37
2022-10-14T11:54:02.065Z,50.47
2022-10-14T11:56:39.057Z,50.65
2022-10-14T11:59:38.095Z,50.73
2022-10-14T12:02:27.567Z,50.86
2022-10-14T12:05:03.722Z,51.07
2022-10-14T12:07:42.547Z,51.12
2022-10-14T12:10:27.345Z,51.33
2022-10-14T12:13:00.345Z,51.49
2022-10-14T12:15:31.672Z,51.55
2022-10-14T12:18:05.852Z,51.95
2022-10-14T12:20:44.934Z,52.04
2022-10-14T12:23:19.656Z,52.08
2022-10-14T12:25:56.657Z,52.22
2022-10-14T12:28:27.889Z,52.13
2022-10-14T12:31:23.829Z,52.24
2022-10-14T12:34:10.748Z,52.14
2022-10-14T12:36:43.525Z,52.13
2022-10-14T12:39:34.352Z,52.22
2022-10-14T12:42:12.421Z,52.23
2022-10-14T12:44:49.961Z,52.22
2022-10-14T12:47:29.111Z,52.16
2022-10-14T12:50:03.226Z,52.19
2022-10-14T12:52:36.964Z,52.24
2022-10-14T12:55:17.906Z,52.19
2022-10-14T12:57:56.822Z,52.25
2022-10-14T13:00:42.136Z,52.32
2022-10-14T13:03:22.550Z,52.36
2022-10-14T13:06:16.415Z,52.32
2022-10-14T13:09:30.785Z,52.41
2022-10-14T13:12:36.017Z,52.62
2022-10-14T13:15:30.084Z,52.74
2022-10-14T13:18:22.531Z,52.84
2022-10-14T13:20:55.733Z,53.03
2022-10-14T13:23:38.970Z,53.02
2022-10-14T13:26:21.495Z,53.03
2022-10-14T13:29:04.306Z,53.02
2022-10-14T13:31:43.528Z,53.25
2022-10-14T13:34:30.722Z,53.45
2022-10-14T13:37:11.060Z,53.35
2022-10-14T13:39:42.700Z,53.27
2022-10-14T13:42:23.685Z,53.54
2022-10-14T13:44:57.740Z,53.56
2022-10-14T13:47:30.196Z,53.56
2022-10-14T13:50:02.018Z,53.45
2022-10-14T13:52:36.083Z,53.44
2022-10-14T13:55:16.855Z,53.53
2022-10-14T13:58:13.015Z,53.78
2022-10-14T14:00:51.821Z,53.80
2022-10-14T14:03:27.471Z,53.93
2022-10-14T14:05:59.813Z,54.16
2022-10-14T14:08:42.117Z,54.30
2022-10-14T14:11:20.486Z,54.45
2022-10-14T14:14:00.632Z,54.35
2022-10-14T14:16:35.721Z,54.64
2022-10-14T14:19:09.582Z,54.77
2022-10-14T14:21:42.223Z,54.87
2022-10-14T14:24:29.514Z,54.91
2022-10-14T14:27:03.450Z,54.90
2022-10-14T14:29:36.564Z,55.07
2022-10-14T14:32:08.567Z,55.32
2022-10-14T14:34:44.308Z,55.34
2022-10-14T14:40:21.256Z,55.51
2022-10-14T14:42:55.582Z,55.71
2022-10-14T14:45:30.556Z,55.77
2022-10-14T14:48:05.686Z,55.77
2022-10-14T14:50:40.249Z,55.79
2022-10-14T14:53:16.448Z,55.73
2022-10-14T14:56:00.431Z,55.95
2022-10-14T14:58:37.259Z,56.11
2022-10-14T15:01:18.098Z,56.23
2022-10-14T15:04:13.196Z,56.38
2022-10-14T15:06:51.042Z,56.51
2022-10-14T15:09:31.426Z,56.69
2022-10-14T15:12:05.758Z,56.94
2022-10-14T15:14:44.315Z,56.79
2022-10-14T15:17:29.720Z,56.83
2022-10-14T15:20:22.449Z,56.90
2022-10-14T15:22:53.415Z,56.98
2022-10-14T15:25:30.479Z,57.18
2022-10-14T15:28:03.003Z,57.38
2022-10-14T15:30:37.116Z,57.25
2022-10-14T15:33:18.160Z,57.34
2022-10-14T15:35:57.625Z,57.36
2022-10-14T15:41:06.322Z,57.42
2022-10-14T15:43:39.825Z,57.35
2022-10-14T15:46:33.086Z,57.52
2022-10-14T15:49:13.036Z,57.58
2022-10-14T15:51:44.055Z,57.69
2022-10-14T15:54:18.792Z,57.77
2022-10-14T15:56:49.608Z,57.85
2022-10-14T15:59:20.753Z,57.95
2022-10-14T16:01:52.306Z,58.05
2022-10-14T16:04:27.663Z,57.99
2022-10-14T16:06:57.882Z,58.26
2022-10-14T16:09:29.160Z,58.36
2022-10-14T16:11:59.987Z,58.36
2022-10-14T16:14:31.028Z,58.43
2022-10-14T16:17:04.810Z,58.62
2022-10-14T16:19:38.184Z,58.66
2022-10-14T16:22:11.310Z,58.77
2022-10-14T16:24:43.072Z,58.99
2022-10-14T16:27:14.201Z,58.97
2022-10-14T16:29:45.250Z,59.02
2022-10-14T16:32:17.249Z,59.07
2022-10-14T16:34:48.472Z,59.18
2022-10-14T16:37:20.534Z,59.28
2022-10-14T16:40:15.685Z,59.33
2022-10-14T16:42:46.500Z,59.36
2022-10-14T16:45:19.539Z,59.54
2022-10-14T16:47:51.018Z,59.50
2022-10-14T16:50:22.808Z,59.50
2022-10-14T16:53:11.717Z,59.58
2022-10-14T16:55:43.048Z,59.61
2022-10-14T16:58:14.615Z,59.74
2022-10-14T17:00:45.704Z,59.80
2022-10-14T17:03:17.444Z,59.91
2022-10-14T17:05:49.617Z,60.03
2022-10-14T17:08:21.059Z,60.09
2022-10-14T17:11:02.381Z,60.10
2022-10-14T17:13:33.537Z,60.16
2022-10-14T17:16:06.451Z,60.20
2022-10-14T17:18:42.556Z,60.37
2022-10-14T17:21:15.081Z,60.36
2022-10-14T17:23:47.226Z,60.43
2022-10-14T17:26:20.601Z,60.50
2022-10-14T17:28:51.527Z,60.62
2022-10-14T17:31:22.777Z,60.56
2022-10-14T17:33:54.039Z,60.69
2022-10-14T17:36:27.880Z,60.73
2022-10-14T17:39:00.604Z,60.73
2022-10-14T17:41:32.943Z,60.94
2022-10-14T17:44:04.145Z,60.90
2022-10-14T17:46:37.068Z,61.13
2022-10-14T17:49:10.149Z,61.09
2022-10-14T17:51:42.170Z,61.18
2022-10-14T17:54:14.456Z,61.30
2022-10-14T17:56:45.574Z,61.37
2022-10-14T17:59:26.543Z,61.49
2022-10-14T18:02:03.484Z,61.54
2022-10-14T18:04:39.983Z,61.56
2022-10-14T18:07:12.109Z,61.64
2022-10-14T18:09:43.785Z,61.63
2022-10-14T18:12:16.146Z,61.82
2022-10-14T18:14:49.983Z,61.87
2022-10-14T18:17:22.137Z,61.91
2022-10-14T18:19:53.699Z,61.90
2022-10-14T18:22:24.790Z,61.91
2022-10-14T18:24:57.513Z,62.01
2022-10-14T18:27:29.583Z,62.24
2022-10-14T18:30:00.876Z,62.29
2022-10-14T18:32:33.485Z,62.39
2022-10-14T18:35:06.112Z,62.57
2022-10-14T18:37:38.235Z,62.70
2022-10-14T18:40:14.434Z,62.69
2022-10-14T18:42:45.548Z,62.80
2022-10-14T18:45:19.731Z,62.92
2022-10-14T18:47:52.279Z,63.04
2022-10-14T18:50:23.185Z,62.99
2022-10-14T18:52:56.586Z,63.17
2022-10-14T18:55:27.836Z,63.21
2022-10-14T18:58:02.310Z,63.33
2022-10-14T19:00:35.153Z,63.45
2022-10-14T19:03:07.021Z,63.60
2022-10-14T19:05:39.498Z,63.65
2022-10-14T19:08:11.305Z,63.84
2022-10-14T19:10:43.932Z,63.95
2022-10-14T19:13:14.931Z,64.11
2022-10-14T19:15:51.360Z,64.14
2022-10-14T19:18:24.017Z,64.26
2022-10-14T19:20:56.870Z,64.32
2022-10-14T19:23:27.816Z,64.36
2022-10-14T19:26:01.349Z,64.40
2022-10-14T19:28:33.401Z,64.53
2022-10-14T19:31:08.691Z,64.62
2022-10-14T19:33:38.615Z,64.79
2022-10-14T19:36:11.088Z,64.74
2022-10-14T19:38:46.231Z,64.83
2022-10-14T19:41:15.658Z,64.92
2022-10-14T19:43:48.099Z,64.97
2022-10-14T19:46:19.184Z,65.07
2022-10-14T19:48:51.259Z,65.20
2022-10-14T19:51:22.746Z,65.17
2022-10-14T19:53:57.325Z,65.22
2022-10-14T19:56:29.314Z,65.25
2022-10-14T19:59:01.787Z,65.27
2022-10-14T20:01:34.468Z,65.25
2022-10-14T20:04:07.255Z,65.32
2022-10-14T20:06:40.533Z,65.30
2022-10-14T20:09:17.204Z,65.48
2022-10-14T20:11:49.188Z,65.52
2022-10-14T20:14:21.509Z,65.65
2022-10-14T20:16:55.853Z,65.68
2022-10-14T20:19:29.830Z,65.60
2022-10-14T20:22:01.769Z,65.64
2022-10-14T20:24:33.430Z,65.60
2022-10-14T20:27:07.961Z,65.81
2022-10-14T20:29:42.824Z,65.95
2022-10-14T20:32:19.001Z,65.95
2022-10-14T20:34:50.503Z,66.08
2022-10-14T20:37:24.283Z,66.08
2022-10-14T20:39:59.258Z,66.18
2022-10-14T20:42:31.344Z,66.19
2022-10-14T20:45:03.127Z,66.29
2022-10-14T20:47:34.005Z,66.18
2022-10-14T20:50:05.625Z,66.27
2022-10-14T20:52:36.665Z,66.26
2022-10-14T20:55:09.017Z,66.27
2022-10-14T20:57:40.153Z,66.25
2022-10-14T21:00:14.285Z,66.19
2022-10-14T21:02:46.749Z,66.28
2022-10-14T21:05:19.721Z,66.40
2022-10-14T21:07:50.604Z,66.37
2022-10-14T21:10:23.212Z,66.54
2022-10-14T21:12:54.083Z,66.55
2022-10-14T21:15:27.051Z,66.65
2022-10-14T21:17:57.877Z,66.65
2022-10-14T21:20:28.853Z,66.63
2022-10-14T21:22:59.861Z,66.71
2022-10-14T21:25:31.055Z,66.86
2022-10-14T21:28:02.202Z,66.97
2022-10-14T21:30:34.358Z,67.11
2022-10-14T21:33:05.501Z,67.14
2022-10-14T21:35:36.763Z,67.04
2022-10-14T21:38:07.699Z,67.20
2022-10-14T21:40:38.752Z,67.29
2022-10-14T21:43:09.750Z,67.28
2022-10-14T21:45:40.755Z,67.36
2022-10-14T21:48:11.744Z,67.41
2022-10-14T21:50:42.623Z,67.53
2022-10-14T21:53:15.364Z,67.72
2022-10-14T21:55:52.827Z,67.79
2022-10-14T21:58:23.784Z,67.88
2022-10-14T22:01:01.983Z,67.92
2022-10-14T22:03:33.257Z,68.06
2022-10-14T22:06:07.180Z,68.10
2022-10-14T22:08:40.921Z,68.08
2022-10-14T22:11:18.856Z,68.36
2022-10-14T22:13:50.314Z,68.39
2022-10-14T22:16:21.447Z,68.50
2022-10-14T22:18:53.973Z,68.60
2022-10-14T22:21:26.983Z,68.73
2022-10-14T22:23:59.415Z,68.67
2022-10-14T22:26:31.236Z,68.69
2022-10-14T22:29:04.425Z,68.82
2022-10-14T22:31:36.056Z,69.05
2022-10-14T22:34:08.844Z,68.98
2022-10-14T22:36:39.876Z,69.00
2022-10-14T22:39:14.681Z,69.19
2022-10-14T22:41:45.849Z,69.19
2022-10-14T22:44:18.803Z,69.32
2022-10-14T22:46:49.708Z,69.40
2022-10-14T22:49:20.546Z,69.35
2022-10-14T22:51:54.532Z,69.38
2022-10-14T22:54:29.805Z,69.59
2022-10-14T22:57:00.814Z,69.48
2022-10-14T22:59:31.780Z,69.42
2022-10-14T23:02:02.666Z,69.71
2022-10-14T23:04:33.493Z,69.74
2022-10-14T23:07:06.923Z,69.85
2022-10-14T23:09:38.080Z,69.82
2022-10-14T23:12:09.258Z,69.98
2022-10-14T23:14:40.164Z,70.07
2022-10-14T23:17:10.937Z,70.30
2022-10-14T23:19:41.747Z,70.36
2022-10-14T23:22:12.698Z,70.48
2022-10-14T23:24:44.156Z,70.30
2022-10-14T23:27:14.961Z,70.37
2022-10-14T23:29:45.778Z,70.33
2022-10-14T23:32:16.548Z,70.40
2022-10-14T23:34:47.352Z,70.43
2022-10-14T23:37:18.226Z,70.54
2022-10-14T23:39:49.375Z,70.54
2022-10-14T23:42:20.176Z,70.48
2022-10-14T23:44:51.281Z,70.69
2022-10-14T23:47:22.282Z,70.74
2022-10-14T23:49:53.529Z,70.73
2022-10-14T23:52:24.546Z,70.56
2022-10-14T23:57:27.575Z,70.70
2022-10-14T23:59:58.391Z,70.82
